createdAt,value
2018-07-05T03:06:26.238Z,15.67
2018-07-05T03:07:05.001Z,15.70
2018-07-05T03:12:05.251Z,15.76
2018-07-05T03:15:03.145Z,15.70
2018-07-05T03:16:18.100Z,15.75
2018-07-05T03:27:57.626Z,15.57
2018-07-05T03:29:07.362Z,15.55
2018-07-05T03:32:48.456Z,15.57
2018-07-05T03:33:41.281Z,15.44
2018-07-05T03:35:13.684Z,15.43
2018-07-05T03:35:31.387Z,15.58
2018-07-05T03:37:52.401Z,15.57
2018-07-05T03:38:34.108Z,15.67
2018-07-05T03:39:05.072Z,15.61
2018-07-05T03:40:51.395Z,15.73
2018-07-05T03:42:08.811Z,15.83
2018-07-05T03:43:06.180Z,15.94
2018-07-05T03:44:38.256Z,15.88
2018-07-05T03:46:37.060Z,15.80
2018-07-05T03:48:56.369Z,15.75
2018-07-05T03:49:35.624Z,15.72
2018-07-05T03:50:37.879Z,15.73
2018-07-05T03:51:37.322Z,15.65
2018-07-05T03:52:31.445Z,15.70
2018-07-05T03:56:41.424Z,15.58
2018-07-05T03:57:21.874Z,15.51
2018-07-05T03:58:21.925Z,15.49
2018-07-05T04:01:54.830Z,15.49
2018-07-05T04:02:54.401Z,15.51
2018-07-05T04:04:05.588Z,15.49
2018-07-05T04:14:58.946Z,15.92
2018-07-05T05:49:18.768Z,19.41
2018-07-05T05:55:35.694Z,19.91
2018-07-05T05:56:22.768Z,19.92
2018-07-05T06:58:41.793Z,24.86
2018-07-05T06:59:42.207Z,24.85
2018-07-05T07:00:42.176Z,24.84
2018-07-05T07:01:41.752Z,24.96
2018-07-05T07:02:41.541Z,24.92
2018-07-05T07:03:45.691Z,25.10
2018-07-05T07:04:44.382Z,25.10
2018-07-05T07:05:43.951Z,25.07
2018-07-05T07:06:42.080Z,25.17
2018-07-05T07:07:42.619Z,25.23
2018-07-05T07:08:42.237Z,25.18
2018-07-05T07:09:41.928Z,25.28
2018-07-05T07:10:43.161Z,25.40
2018-07-05T07:11:43.536Z,25.51
2018-07-05T07:12:41.884Z,25.60
2018-07-05T07:13:39.789Z,25.60
2018-07-05T07:14:40.094Z,25.68
2018-07-05T07:15:42.872Z,25.72
2018-07-05T07:16:40.449Z,25.83
2018-07-05T08:12:12.913Z,27.70
2018-07-05T08:13:12.868Z,27.80
2018-07-05T08:14:12.334Z,27.85
2018-07-05T08:16:25.225Z,27.98
2018-07-05T08:17:12.746Z,28.10
2018-07-05T08:18:13.333Z,28.19
2018-07-05T08:19:13.865Z,28.45
2018-07-05T08:20:14.236Z,28.67
2018-07-05T08:21:16.424Z,28.88
2018-07-05T08:22:13.590Z,28.82
2018-07-05T08:23:12.521Z,29.24
2018-07-05T08:24:11.495Z,29.26
2018-07-05T08:25:11.743Z,29.34
2018-07-05T08:26:11.824Z,29.44
2018-07-05T08:27:12.005Z,29.88
2018-07-05T08:28:12.151Z,30.15
2018-07-05T08:29:12.310Z,30.61
2018-07-05T08:30:12.572Z,30.75
2018-07-05T08:31:12.695Z,30.94
2018-07-05T08:32:12.915Z,31.18
2018-07-05T08:33:13.074Z,31.21
2018-07-05T08:34:13.304Z,31.58
2018-07-05T08:35:13.419Z,31.89
2018-07-05T08:36:13.658Z,32.16
2018-07-05T08:37:13.852Z,32.21
2018-07-05T08:38:13.910Z,32.29
2018-07-05T08:39:14.142Z,32.58
2018-07-05T08:40:14.361Z,32.64
2018-07-05T08:41:14.526Z,32.58
2018-07-05T08:42:14.648Z,32.56
2018-07-05T08:43:14.826Z,32.30
2018-07-05T08:44:14.952Z,32.14
2018-07-05T08:45:16.797Z,32.18
2018-07-05T08:46:16.589Z,32.30
2018-07-05T08:47:15.756Z,32.30
2018-07-05T08:48:16.333Z,32.23
2018-07-05T08:49:16.128Z,32.31
2018-07-05T08:50:16.193Z,32.30
2018-07-05T08:51:16.570Z,32.11
2018-07-05T08:52:16.584Z,31.74
2018-07-05T08:53:16.807Z,31.70
2018-07-05T08:54:17.022Z,31.58
2018-07-05T08:55:17.591Z,31.71
2018-07-05T08:56:17.379Z,31.80
2018-07-05T08:57:17.513Z,31.44
2018-07-05T08:58:17.915Z,31.49
2018-07-05T08:59:17.987Z,31.37
2018-07-05T09:00:18.089Z,31.44
2018-07-05T09:01:18.239Z,31.44
2018-07-05T09:02:18.530Z,31.46
2018-07-05T09:03:18.625Z,31.27
2018-07-05T09:04:18.847Z,30.99
2018-07-05T09:05:19.140Z,30.75
2018-07-05T09:06:19.207Z,30.70
2018-07-05T09:07:19.427Z,30.66
2018-07-05T09:08:19.664Z,30.57
2018-07-05T09:09:19.839Z,30.65
2018-07-05T09:10:19.993Z,30.53
2018-07-05T09:11:20.193Z,30.44
2018-07-05T09:12:20.370Z,30.40
2018-07-05T09:13:20.623Z,30.27
2018-07-05T09:14:20.586Z,30.08
2018-07-05T09:15:20.817Z,30.12
2018-07-05T09:16:21.050Z,30.09
2018-07-05T09:17:21.278Z,30.09
2018-07-05T09:18:21.394Z,29.97
2018-07-05T09:19:21.532Z,30.05
2018-07-05T09:20:21.712Z,30.08
2018-07-05T09:21:21.933Z,30.08
2018-07-05T09:22:22.048Z,30.10
2018-07-05T09:23:22.278Z,30.13
2018-07-05T09:24:22.410Z,30.15
2018-07-05T09:25:22.543Z,30.10
2018-07-05T09:26:22.732Z,30.12
2018-07-05T09:27:23.006Z,29.93
2018-07-05T09:28:23.146Z,30.00
2018-07-05T09:29:23.427Z,29.87
2018-07-05T09:30:23.456Z,29.91
2018-07-05T09:31:23.667Z,29.86
2018-07-05T09:32:23.942Z,29.78
2018-07-05T09:33:24.023Z,29.82
2018-07-05T09:34:26.201Z,29.82
2018-07-05T09:35:24.714Z,29.50
2018-07-05T09:36:25.209Z,29.54
2018-07-05T09:37:25.002Z,29.47
2018-07-05T09:38:25.318Z,29.41
2018-07-05T11:11:33.839Z,33.73
2018-07-05T12:07:10.124Z,34.60
2018-07-05T12:23:16.551Z,32.14
2018-07-05T12:24:17.098Z,31.69
2018-07-05T12:25:18.097Z,31.47
2018-07-05T12:26:16.082Z,31.14
2018-07-05T12:27:15.496Z,31.12
2018-07-05T12:28:14.291Z,30.94
2018-07-05T12:29:14.618Z,30.63
2018-07-05T12:30:14.698Z,30.37
2018-07-05T12:31:14.918Z,30.28
2018-07-05T12:32:15.148Z,30.21
2018-07-05T12:33:15.283Z,30.06
2018-07-05T12:34:15.520Z,29.82
2018-07-05T12:35:15.771Z,29.87
2018-07-05T12:36:16.356Z,29.82
2018-07-05T12:37:16.291Z,29.82
2018-07-05T12:38:18.031Z,29.66
2018-07-05T12:39:16.963Z,29.59
2018-07-05T12:40:16.737Z,29.54
2018-07-05T12:41:16.832Z,29.44
2018-07-05T12:42:17.057Z,29.23
2018-07-05T12:43:17.345Z,29.12
2018-07-05T12:44:17.234Z,29.05
2018-07-05T12:45:17.448Z,29.02
2018-07-05T12:46:17.651Z,28.96
2018-07-05T12:47:17.750Z,28.84
2018-07-05T12:48:17.957Z,28.97
2018-07-05T12:49:18.936Z,28.82
2018-07-05T12:50:18.520Z,28.79
2018-07-05T12:51:19.931Z,28.81
2018-07-05T12:52:18.832Z,28.59
2018-07-05T12:53:19.460Z,28.45
2018-07-05T12:54:19.753Z,28.42
2018-07-05T12:55:19.680Z,28.48
2018-07-05T12:56:19.594Z,28.48
2018-07-05T12:57:20.761Z,28.51
2018-07-05T12:58:19.969Z,28.67
2018-07-05T12:59:20.746Z,28.76
2018-07-05T13:00:20.799Z,28.64
2018-07-05T13:01:20.878Z,28.72
2018-07-05T13:02:22.313Z,28.69
2018-07-05T13:03:21.127Z,28.76
2018-07-05T13:04:21.925Z,28.84
2018-07-05T13:05:21.439Z,28.82
2018-07-05T13:06:21.879Z,28.75
2018-07-05T13:07:21.699Z,28.63
2018-07-05T13:08:21.831Z,28.66
2018-07-05T13:09:21.862Z,28.48
2018-07-05T13:10:22.251Z,28.59
2018-07-05T13:11:22.212Z,28.44
2018-07-05T13:12:22.584Z,28.38
2018-07-05T13:16:10.131Z,28.52
2018-07-05T13:17:16.214Z,28.59
2018-07-05T13:28:02.606Z,29.81
2018-07-05T13:29:18.630Z,29.82
2018-07-05T13:30:10.821Z,30.00
2018-07-05T13:31:08.385Z,30.06
2018-07-05T13:33:10.161Z,29.98
2018-07-05T13:34:04.002Z,29.93
2018-07-05T13:35:02.654Z,29.94
2018-07-05T13:36:01.610Z,29.81
2018-07-05T13:37:01.807Z,29.90
2018-07-05T13:38:02.141Z,30.03
2018-07-05T13:39:02.070Z,29.86
2018-07-05T13:40:02.398Z,29.90
2018-07-05T13:41:02.463Z,29.82
2018-07-05T13:42:02.694Z,29.81
2018-07-05T13:43:02.908Z,29.66
2018-07-05T13:44:02.980Z,29.75
2018-07-05T13:45:03.269Z,29.81
2018-07-05T13:46:03.431Z,29.86
2018-07-05T13:47:03.770Z,29.59
2018-07-05T13:48:03.765Z,29.59
2018-07-05T13:49:03.955Z,29.57
2018-07-05T13:50:04.747Z,29.65
2018-07-05T13:51:05.315Z,29.57
2018-07-05T13:52:04.569Z,29.47
2018-07-05T13:53:04.802Z,29.51
2018-07-05T13:54:04.936Z,29.53
2018-07-05T13:55:05.282Z,29.65
2018-07-05T13:56:05.189Z,29.53
2018-07-05T13:57:05.542Z,29.65
2018-07-05T13:58:05.541Z,29.49
2018-07-05T13:59:05.731Z,29.34
2018-07-05T14:00:05.907Z,29.49
2018-07-05T14:01:06.214Z,29.59
2018-07-05T14:02:06.380Z,29.63
2018-07-05T14:03:06.624Z,29.75
2018-07-05T14:04:06.695Z,29.72
2018-07-05T14:05:07.127Z,29.88
2018-07-05T14:06:07.275Z,29.93
2018-07-05T14:07:07.362Z,30.10
2018-07-05T14:08:07.558Z,30.24
2018-07-05T14:09:07.871Z,30.47
2018-07-05T14:10:08.703Z,30.55
2018-07-05T14:11:07.999Z,30.66
2018-07-05T14:12:08.226Z,30.83
2018-07-05T14:13:08.481Z,31.12
2018-07-05T14:14:08.556Z,31.34
2018-07-05T14:15:08.949Z,31.44
2018-07-05T14:16:09.060Z,31.94
2018-07-05T14:17:09.079Z,32.12
2018-07-05T14:18:09.272Z,32.46
2018-07-05T14:19:09.590Z,32.53
2018-07-05T14:20:09.747Z,32.65
2018-07-05T14:21:10.200Z,32.71
2018-07-05T14:22:09.899Z,32.78
2018-07-05T14:23:10.112Z,32.83
2018-07-05T14:24:10.367Z,32.86
2018-07-05T14:25:10.607Z,33.00
2018-07-05T14:26:10.770Z,33.02
2018-07-05T14:27:10.837Z,32.90
2018-07-05T14:28:11.946Z,32.96
2018-07-05T14:29:12.470Z,32.86
2018-07-05T14:30:11.925Z,32.71
2018-07-05T14:31:12.100Z,32.64
2018-07-05T14:32:12.053Z,32.58
2018-07-05T14:33:12.399Z,32.41
2018-07-05T14:34:12.102Z,32.21
2018-07-05T14:35:14.074Z,31.99
2018-07-05T14:36:12.970Z,31.77
2018-07-05T14:47:10.287Z,30.81
2018-07-05T14:48:08.923Z,30.75
2018-07-05T14:51:38.644Z,30.39
2018-07-05T14:55:18.038Z,29.97
2018-07-05T14:58:29.549Z,29.72
2018-07-05T15:08:16.421Z,29.39
2018-07-05T15:10:31.946Z,29.35
2018-07-05T16:12:05.787Z,27.63
2018-07-05T16:15:03.493Z,27.55
2018-07-05T16:17:11.323Z,27.51
2018-07-05T19:30:58.821Z,25.06
2018-07-05T19:31:58.978Z,24.89
2018-07-05T19:40:30.777Z,24.85
2018-07-05T20:01:10.898Z,24.29
2018-07-05T20:01:50.881Z,24.26
2018-07-05T20:02:51.772Z,24.29
2018-07-05T20:06:10.602Z,24.03
2018-07-05T20:07:04.158Z,23.99
2018-07-05T20:08:04.369Z,23.98
2018-07-05T20:09:05.336Z,23.91
2018-07-05T20:29:38.536Z,23.34
2018-07-05T20:30:47.080Z,23.27
